sensor_id;sensor_type;location;lat;lon;timestamp;temperature;humidity
12870;DHT22;6503;48.572;13.460;2022-08-19T07:37:12;22.70;99.90
12870;DHT22;6503;48.572;13.460;2022-08-19T07:39:43;22.90;99.90
12870;DHT22;6503;48.572;13.460;2022-08-19T07:42:11;23.00;99.90
12870;DHT22;6503;48.572;13.460;2022-08-19T07:44:41;23.10;99.90
12870;DHT22;6503;48.572;13.460;2022-08-19T07:47:16;23.00;99.90
12870;DHT22;6503;48.572;13.460;2022-08-19T07:49:52;23.00;99.90
12870;DHT22;6503;48.572;13.460;2022-08-19T07:52:25;22.90;99.90
12870;DHT22;6503;48.572;13.460;2022-08-19T07:54:54;22.80;99.90
12870;DHT22;6503;48.572;13.460;2022-08-19T07:57:27;22.80;99.90
12870;DHT22;6503;48.572;13.460;2022-08-19T07:59:58;22.80;99.90
12870;DHT22;6503;48.572;13.460;2022-08-19T08:02:28;22.80;99.90
12870;DHT22;6503;48.572;13.460;2022-08-19T08:04:58;22.80;99.90
12870;DHT22;6503;48.572;13.460;2022-08-19T08:07:48;22.90;99.90
12870;DHT22;6503;48.572;13.460;2022-08-19T08:10:34;22.90;99.90
12870;DHT22;6503;48.572;13.460;2022-08-19T08:13:05;23.00;99.90
12870;DHT22;6503;48.572;13.460;2022-08-19T08:15:35;22.90;99.90
12870;DHT22;6503;48.572;13.460;2022-08-19T08:18:06;22.90;99.90
12870;DHT22;6503;48.572;13.460;2022-08-19T08:20:36;22.90;99.90
12870;DHT22;6503;48.572;13.460;2022-08-19T08:23:09;22.90;99.90
12870;DHT22;6503;48.572;13.460;2022-08-19T08:25:53;22.90;99.90
12870;DHT22;6503;48.572;13.460;2022-08-19T08:28:26;23.00;99.90
12870;DHT22;6503;48.572;13.460;2022-08-19T08:30:57;23.10;99.90
12870;DHT22;6503;48.572;13.460;2022-08-19T08:33:27;23.10;99.90
12870;DHT22;6503;48.572;13.460;2022-08-19T08:35:58;23.10;99.90
12870;DHT22;6503;48.572;13.460;2022-08-19T08:38:30;22.90;99.90
12870;DHT22;6503;48.572;13.460;2022-08-19T08:41:04;22.90;99.90
12870;DHT22;6503;48.572;13.460;2022-08-19T08:43:39;22.90;99.90
12870;DHT22;6503;48.572;13.460;2022-08-19T08:46:17;22.90;99.90
12870;DHT22;6503;48.572;13.460;2022-08-19T08:48:54;22.90;99.90
12870;DHT22;6503;48.572;13.460;2022-08-19T08:51:28;22.90;99.90
12870;DHT22;6503;48.572;13.460;2022-08-19T08:54:07;23.00;99.90
12870;DHT22;6503;48.572;13.460;2022-08-19T08:56:39;23.00;99.90
12870;DHT22;6503;48.572;13.460;2022-08-19T08:59:16;23.00;99.90
12870;DHT22;6503;48.572;13.460;2022-08-19T09:01:51;23.00;99.90
12870;DHT22;6503;48.572;13.460;2022-08-19T09:04:23;23.20;99.90
12870;DHT22;6503;48.572;13.460;2022-08-19T09:07:07;23.30;99.90
12870;DHT22;6503;48.572;13.460;2022-08-19T09:09:55;23.40;99.90
12870;DHT22;6503;48.572;13.460;2022-08-19T09:12:40;23.60;99.90
12870;DHT22;6503;48.572;13.460;2022-08-19T09:15:21;23.70;99.90
12870;DHT22;6503;48.572;13.460;2022-08-19T09:18:00;23.70;99.90
12870;DHT22;6503;48.572;13.460;2022-08-19T09:20:31;23.60;99.90
12870;DHT22;6503;48.572;13.460;2022-08-19T09:23:02;23.60;99.90
12870;DHT22;6503;48.572;13.460;2022-08-19T09:25:33;23.70;99.90
12870;DHT22;6503;48.572;13.460;2022-08-19T09:28:03;23.70;99.90
12870;DHT22;6503;48.572;13.460;2022-08-19T09:30:36;23.80;99.90
12870;DHT22;6503;48.572;13.460;2022-08-19T09:33:08;23.80;99.90
12870;DHT22;6503;48.572;13.460;2022-08-19T09:35:39;23.80;99.90
12870;DHT22;6503;48.572;13.460;2022-08-19T09:38:11;23.90;99.90
12870;DHT22;6503;48.572;13.460;2022-08-19T09:40:43;23.80;99.90
12870;DHT22;6503;48.572;13.460;2022-08-19T09:43:13;23.70;99.90
12870;DHT22;6503;48.572;13.460;2022-08-19T09:45:43;23.80;99.90
12870;DHT22;6503;48.572;13.460;2022-08-19T09:48:15;23.90;99.90
12870;DHT22;6503;48.572;13.460;2022-08-19T09:50:46;24.30;99.90
12870;DHT22;6503;48.572;13.460;2022-08-19T09:53:17;24.60;99.90
12870;DHT22;6503;48.572;13.460;2022-08-19T09:55:52;24.80;99.90
12870;DHT22;6503;48.572;13.460;2022-08-19T09:58:24;24.90;99.90
12870;DHT22;6503;48.572;13.460;2022-08-19T10:00:55;24.90;99.90
12870;DHT22;6503;48.572;13.460;2022-08-19T10:03:27;24.90;99.90
12870;DHT22;6503;48.572;13.460;2022-08-19T10:05:58;24.90;99.90
12870;DHT22;6503;48.572;13.460;2022-08-19T10:08:30;25.10;99.90
12870;DHT22;6503;48.572;13.460;2022-08-19T10:11:04;25.30;99.90
12870;DHT22;6503;48.572;13.460;2022-08-19T10:13:35;25.60;99.90
12870;DHT22;6503;48.572;13.460;2022-08-19T10:16:09;26.00;99.90
12870;DHT22;6503;48.572;13.460;2022-08-19T10:18:40;25.90;99.90
12870;DHT22;6503;48.572;13.460;2022-08-19T10:21:13;25.90;99.90
12870;DHT22;6503;48.572;13.460;2022-08-19T10:23:46;26.10;99.90
12870;DHT22;6503;48.572;13.460;2022-08-19T10:26:21;26.20;99.90
12870;DHT22;6503;48.572;13.460;2022-08-19T10:28:51;26.20;99.90
12870;DHT22;6503;48.572;13.460;2022-08-19T10:31:23;26.30;99.90
12870;DHT22;6503;48.572;13.460;2022-08-19T10:33:54;26.40;99.90
12870;DHT22;6503;48.572;13.460;2022-08-19T10:36:26;26.60;99.90
12870;DHT22;6503;48.572;13.460;2022-08-19T10:38:57;26.80;99.90
12870;DHT22;6503;48.572;13.460;2022-08-19T10:41:32;26.90;99.90
12870;DHT22;6503;48.572;13.460;2022-08-19T10:44:05;26.90;99.90
12870;DHT22;6503;48.572;13.460;2022-08-19T10:46:40;26.80;99.90
12870;DHT22;6503;48.572;13.460;2022-08-19T10:49:12;26.80;99.90
12870;DHT22;6503;48.572;13.460;2022-08-19T10:51:42;26.80;99.90
12870;DHT22;6503;48.572;13.460;2022-08-19T10:54:29;26.70;99.90
12870;DHT22;6503;48.572;13.460;2022-08-19T10:57:13;26.80;99.90
12870;DHT22;6503;48.572;13.460;2022-08-19T10:59:45;26.90;99.90
12870;DHT22;6503;48.572;13.460;2022-08-19T11:02:15;27.00;99.90
12870;DHT22;6503;48.572;13.460;2022-08-19T11:04:45;27.20;99.90
12870;DHT22;6503;48.572;13.460;2022-08-19T11:07:17;27.30;99.90
12870;DHT22;6503;48.572;13.460;2022-08-19T11:09:48;27.40;99.90
12870;DHT22;6503;48.572;13.460;2022-08-19T11:12:24;27.40;99.90
12870;DHT22;6503;48.572;13.460;2022-08-19T11:14:54;27.30;99.90
12870;DHT22;6503;48.572;13.460;2022-08-19T11:17:24;27.20;99.90
12870;DHT22;6503;48.572;13.460;2022-08-19T11:19:54;26.90;99.90
12870;DHT22;6503;48.572;13.460;2022-08-19T11:22:24;26.80;99.90
12870;DHT22;6503;48.572;13.460;2022-08-19T11:24:55;26.90;99.90
12870;DHT22;6503;48.572;13.460;2022-08-19T11:27:28;27.00;99.90
12870;DHT22;6503;48.572;13.460;2022-08-19T11:29:59;27.40;99.90
12870;DHT22;6503;48.572;13.460;2022-08-19T11:32:31;27.60;99.90
12870;DHT22;6503;48.572;13.460;2022-08-19T11:35:02;27.40;99.90
12870;DHT22;6503;48.572;13.460;2022-08-19T11:37:32;27.30;99.90
12870;DHT22;6503;48.572;13.460;2022-08-19T11:40:07;27.30;99.90
12870;DHT22;6503;48.572;13.460;2022-08-19T11:42:39;27.70;99.90
12870;DHT22;6503;48.572;13.460;2022-08-19T11:45:26;28.00;99.90
12870;DHT22;6503;48.572;13.460;2022-08-19T11:47:58;28.20;99.90
12870;DHT22;6503;48.572;13.460;2022-08-19T11:50:29;28.20;99.90
12870;DHT22;6503;48.572;13.460;2022-08-19T11:52:59;28.10;99.90
12870;DHT22;6503;48.572;13.460;2022-08-19T11:55:30;27.90;99.90
12870;DHT22;6503;48.572;13.460;2022-08-19T11:58:02;27.70;99.90
12870;DHT22;6503;48.572;13.460;2022-08-19T12:00:34;27.80;99.90
12870;DHT22;6503;48.572;13.460;2022-08-19T12:03:05;27.90;99.90
12870;DHT22;6503;48.572;13.460;2022-08-19T12:05:38;27.70;99.90
12870;DHT22;6503;48.572;13.460;2022-08-19T12:08:08;27.50;99.90
12870;DHT22;6503;48.572;13.460;2022-08-19T12:10:41;27.30;99.90
12870;DHT22;6503;48.572;13.460;2022-08-19T12:13:15;27.50;99.90
12870;DHT22;6503;48.572;13.460;2022-08-19T12:15:46;27.80;99.90
12870;DHT22;6503;48.572;13.460;2022-08-19T12:18:17;27.70;99.90
12870;DHT22;6503;48.572;13.460;2022-08-19T12:20:49;27.30;99.90
12870;DHT22;6503;48.572;13.460;2022-08-19T12:23:21;27.00;99.90
12870;DHT22;6503;48.572;13.460;2022-08-19T12:25:52;27.40;99.90
12870;DHT22;6503;48.572;13.460;2022-08-19T12:28:27;28.00;99.90
12870;DHT22;6503;48.572;13.460;2022-08-19T12:30:59;28.40;99.90
12870;DHT22;6503;48.572;13.460;2022-08-19T12:33:31;28.80;99.90
12870;DHT22;6503;48.572;13.460;2022-08-19T12:36:05;28.90;99.90
12870;DHT22;6503;48.572;13.460;2022-08-19T12:38:37;29.00;99.20
12870;DHT22;6503;48.572;13.460;2022-08-19T12:41:09;28.80;99.90
12870;DHT22;6503;48.572;13.460;2022-08-19T12:43:46;28.80;96.40
12870;DHT22;6503;48.572;13.460;2022-08-19T12:46:17;28.90;96.40
12870;DHT22;6503;48.572;13.460;2022-08-19T12:48:51;28.90;94.30
12870;DHT22;6503;48.572;13.460;2022-08-19T12:51:21;28.70;94.20
12870;DHT22;6503;48.572;13.460;2022-08-19T12:53:53;28.80;95.20
12870;DHT22;6503;48.572;13.460;2022-08-19T12:56:25;28.80;93.50
12870;DHT22;6503;48.572;13.460;2022-08-19T12:59:01;28.60;92.40
12870;DHT22;6503;48.572;13.460;2022-08-19T13:01:32;28.50;94.80
12870;DHT22;6503;48.572;13.460;2022-08-19T13:04:02;28.40;95.60
12870;DHT22;6503;48.572;13.460;2022-08-19T13:06:33;28.30;99.90
12870;DHT22;6503;48.572;13.460;2022-08-19T13:09:03;28.00;99.90
12870;DHT22;6503;48.572;13.460;2022-08-19T13:11:34;28.10;98.80
12870;DHT22;6503;48.572;13.460;2022-08-19T13:14:06;28.10;96.60
12870;DHT22;6503;48.572;13.460;2022-08-19T13:16:37;28.20;96.20
12870;DHT22;6503;48.572;13.460;2022-08-19T13:19:07;28.20;98.00
12870;DHT22;6503;48.572;13.460;2022-08-19T13:21:39;28.30;98.80
12870;DHT22;6503;48.572;13.460;2022-08-19T13:24:09;28.30;98.80
12870;DHT22;6503;48.572;13.460;2022-08-19T13:26:42;28.70;97.80
12870;DHT22;6503;48.572;13.460;2022-08-19T13:29:15;28.90;89.20
12870;DHT22;6503;48.572;13.460;2022-08-19T13:32:05;29.20;84.50
12870;DHT22;6503;48.572;13.460;2022-08-19T13:34:52;29.20;80.20
12870;DHT22;6503;48.572;13.460;2022-08-19T13:37:24;29.00;85.70
12870;DHT22;6503;48.572;13.460;2022-08-19T13:40:09;29.40;79.50
12870;DHT22;6503;48.572;13.460;2022-08-19T13:42:43;29.80;77.30
12870;DHT22;6503;48.572;13.460;2022-08-19T13:45:20;30.10;72.90
12870;DHT22;6503;48.572;13.460;2022-08-19T13:47:53;30.50;61.50
12870;DHT22;6503;48.572;13.460;2022-08-19T13:50:25;30.80;59.60
12870;DHT22;6503;48.572;13.460;2022-08-19T13:52:56;31.00;57.50
12870;DHT22;6503;48.572;13.460;2022-08-19T13:55:26;31.10;53.90
12870;DHT22;6503;48.572;13.460;2022-08-19T13:57:59;31.20;51.00
12870;DHT22;6503;48.572;13.460;2022-08-19T14:00:35;31.40;46.10
12870;DHT22;6503;48.572;13.460;2022-08-19T14:03:05;31.40;44.00
12870;DHT22;6503;48.572;13.460;2022-08-19T14:05:35;31.50;41.60
12870;DHT22;6503;48.572;13.460;2022-08-19T14:08:05;31.30;43.90
12870;DHT22;6503;48.572;13.460;2022-08-19T14:10:35;31.20;40.30
12870;DHT22;6503;48.572;13.460;2022-08-19T14:13:06;31.00;39.30
12870;DHT22;6503;48.572;13.460;2022-08-19T14:15:41;30.90;39.80
12870;DHT22;6503;48.572;13.460;2022-08-19T14:18:11;30.80;41.80
12870;DHT22;6503;48.572;13.460;2022-08-19T14:20:42;30.80;41.40
12870;DHT22;6503;48.572;13.460;2022-08-19T14:23:12;30.30;42.50
12870;DHT22;6503;48.572;13.460;2022-08-19T14:25:42;29.90;47.70
12870;DHT22;6503;48.572;13.460;2022-08-19T14:28:13;30.00;51.90
12870;DHT22;6503;48.572;13.460;2022-08-19T14:30:47;30.00;53.80
12870;DHT22;6503;48.572;13.460;2022-08-19T14:33:17;29.70;57.60
12870;DHT22;6503;48.572;13.460;2022-08-19T14:35:47;29.50;62.20
12870;DHT22;6503;48.572;13.460;2022-08-19T14:38:19;29.50;63.90
12870;DHT22;6503;48.572;13.460;2022-08-19T14:40:50;29.60;63.10
12870;DHT22;6503;48.572;13.460;2022-08-19T14:43:22;29.70;56.50
12870;DHT22;6503;48.572;13.460;2022-08-19T14:45:55;29.70;53.90
12870;DHT22;6503;48.572;13.460;2022-08-19T14:48:25;29.70;55.60
12870;DHT22;6503;48.572;13.460;2022-08-19T14:50:56;29.50;56.70
12870;DHT22;6503;48.572;13.460;2022-08-19T14:53:35;29.30;57.00
12870;DHT22;6503;48.572;13.460;2022-08-19T14:56:09;29.40;55.30
12870;DHT22;6503;48.572;13.460;2022-08-19T14:58:42;29.60;54.60
12870;DHT22;6503;48.572;13.460;2022-08-19T15:01:16;29.80;54.40
12870;DHT22;6503;48.572;13.460;2022-08-19T15:03:48;29.90;53.80
12870;DHT22;6503;48.572;13.460;2022-08-19T15:06:20;30.00;53.30
12870;DHT22;6503;48.572;13.460;2022-08-19T15:08:51;29.80;53.60
12870;DHT22;6503;48.572;13.460;2022-08-19T15:11:23;29.70;52.50
12870;DHT22;6503;48.572;13.460;2022-08-19T15:13:56;29.80;51.70
12870;DHT22;6503;48.572;13.460;2022-08-19T15:16:29;29.80;50.30
12870;DHT22;6503;48.572;13.460;2022-08-19T15:18:59;29.90;50.80
12870;DHT22;6503;48.572;13.460;2022-08-19T15:21:30;30.00;45.30
12870;DHT22;6503;48.572;13.460;2022-08-19T15:24:00;29.80;45.10
12870;DHT22;6503;48.572;13.460;2022-08-19T15:26:32;29.80;45.70
12870;DHT22;6503;48.572;13.460;2022-08-19T15:29:05;29.80;50.90
12870;DHT22;6503;48.572;13.460;2022-08-19T15:31:38;29.40;53.50
12870;DHT22;6503;48.572;13.460;2022-08-19T15:34:10;29.20;64.80
12870;DHT22;6503;48.572;13.460;2022-08-19T15:36:41;29.00;76.90
12870;DHT22;6503;48.572;13.460;2022-08-19T15:39:15;28.60;88.80
12870;DHT22;6503;48.572;13.460;2022-08-19T15:41:49;28.40;93.90
12870;DHT22;6503;48.572;13.460;2022-08-19T15:44:22;28.50;92.90
12870;DHT22;6503;48.572;13.460;2022-08-19T15:46:54;28.40;95.40
12870;DHT22;6503;48.572;13.460;2022-08-19T15:49:25;28.60;94.80
12870;DHT22;6503;48.572;13.460;2022-08-19T15:51:55;28.90;91.50
12870;DHT22;6503;48.572;13.460;2022-08-19T15:54:26;29.10;86.30
12870;DHT22;6503;48.572;13.460;2022-08-19T15:56:55;29.10;81.20
12870;DHT22;6503;48.572;13.460;2022-08-19T15:59:41;29.00;80.80
12870;DHT22;6503;48.572;13.460;2022-08-19T16:02:31;28.50;91.10
12870;DHT22;6503;48.572;13.460;2022-08-19T16:05:20;28.60;89.70
12870;DHT22;6503;48.572;13.460;2022-08-19T16:08:08;28.60;90.50
12870;DHT22;6503;48.572;13.460;2022-08-19T16:10:39;28.30;94.90
12870;DHT22;6503;48.572;13.460;2022-08-19T16:13:09;28.20;96.20
12870;DHT22;6503;48.572;13.460;2022-08-19T16:15:39;28.20;98.30
12870;DHT22;6503;48.572;13.460;2022-08-19T16:18:15;28.10;99.90
12870;DHT22;6503;48.572;13.460;2022-08-19T16:20:45;28.00;99.90
12870;DHT22;6503;48.572;13.460;2022-08-19T16:23:14;28.10;99.90
12870;DHT22;6503;48.572;13.460;2022-08-19T16:25:46;28.00;99.90
12870;DHT22;6503;48.572;13.460;2022-08-19T16:28:17;28.00;99.90
12870;DHT22;6503;48.572;13.460;2022-08-19T16:30:49;28.10;99.90
12870;DHT22;6503;48.572;13.460;2022-08-19T16:33:23;28.20;99.90
12870;DHT22;6503;48.572;13.460;2022-08-19T16:35:53;28.10;99.90
12870;DHT22;6503;48.572;13.460;2022-08-19T16:38:23;27.90;99.90
12870;DHT22;6503;48.572;13.460;2022-08-19T16:40:55;27.90;99.90
12870;DHT22;6503;48.572;13.460;2022-08-19T16:43:28;28.00;99.90
12870;DHT22;6503;48.572;13.460;2022-08-19T16:46:02;27.70;99.90
12870;DHT22;6503;48.572;13.460;2022-08-19T16:48:40;27.30;99.90
12870;DHT22;6503;48.572;13.460;2022-08-19T16:51:13;27.10;99.90
12870;DHT22;6503;48.572;13.460;2022-08-19T16:53:43;26.80;99.90
12870;DHT22;6503;48.572;13.460;2022-08-19T16:56:13;26.80;99.90
12870;DHT22;6503;48.572;13.460;2022-08-19T16:58:44;26.90;99.90
12870;DHT22;6503;48.572;13.460;2022-08-19T17:01:16;26.90;99.90
12870;DHT22;6503;48.572;13.460;2022-08-19T17:03:50;26.80;99.90
12870;DHT22;6503;48.572;13.460;2022-08-19T17:06:22;26.70;99.90
12870;DHT22;6503;48.572;13.460;2022-08-19T17:08:59;26.60;99.90
12870;DHT22;6503;48.572;13.460;2022-08-19T17:11:30;26.50;99.90
12870;DHT22;6503;48.572;13.460;2022-08-19T17:14:02;26.50;99.90
12870;DHT22;6503;48.572;13.460;2022-08-19T17:16:34;26.40;99.90
12870;DHT22;6503;48.572;13.460;2022-08-19T17:19:13;26.30;99.90
12870;DHT22;6503;48.572;13.460;2022-08-19T17:21:44;26.10;99.90
12870;DHT22;6503;48.572;13.460;2022-08-19T17:24:19;25.70;99.90
12870;DHT22;6503;48.572;13.460;2022-08-19T17:26:49;25.60;99.90
12870;DHT22;6503;48.572;13.460;2022-08-19T17:29:20;25.50;99.90
12870;DHT22;6503;48.572;13.460;2022-08-19T17:31:51;25.50;99.90
12870;DHT22;6503;48.572;13.460;2022-08-19T17:34:26;25.10;99.90
12870;DHT22;6503;48.572;13.460;2022-08-19T17:36:56;24.90;99.90
12870;DHT22;6503;48.572;13.460;2022-08-19T17:39:26;24.90;99.90
12870;DHT22;6503;48.572;13.460;2022-08-19T17:41:57;25.00;99.90
12870;DHT22;6503;48.572;13.460;2022-08-19T17:44:27;25.00;99.90
12870;DHT22;6503;48.572;13.460;2022-08-19T17:46:59;24.90;99.90
12870;DHT22;6503;48.572;13.460;2022-08-19T17:49:33;24.80;99.90
12870;DHT22;6503;48.572;13.460;2022-08-19T17:52:05;24.60;99.90
12870;DHT22;6503;48.572;13.460;2022-08-19T17:54:35;24.30;99.90
12870;DHT22;6503;48.572;13.460;2022-08-19T17:57:08;24.00;99.90
12870;DHT22;6503;48.572;13.460;2022-08-19T17:59:37;23.80;99.90
12870;DHT22;6503;48.572;13.460;2022-08-19T18:02:10;23.50;99.90
12870;DHT22;6503;48.572;13.460;2022-08-19T18:04:41;23.30;99.90
12870;DHT22;6503;48.572;13.460;2022-08-19T18:07:11;23.00;99.90
12870;DHT22;6503;48.572;13.460;2022-08-19T18:09:48;22.80;99.90
12870;DHT22;6503;48.572;13.460;2022-08-19T18:12:23;22.20;99.90
12870;DHT22;6503;48.572;13.460;2022-08-19T18:14:53;21.60;99.90
12870;DHT22;6503;48.572;13.460;2022-08-19T18:17:23;21.40;99.90
12870;DHT22;6503;48.572;13.460;2022-08-19T18:19:57;21.20;99.90
12870;DHT22;6503;48.572;13.460;2022-08-19T18:22:30;21.20;99.90
12870;DHT22;6503;48.572;13.460;2022-08-19T18:25:05;21.20;99.90
12870;DHT22;6503;48.572;13.460;2022-08-19T18:27:36;21.10;99.90
12870;DHT22;6503;48.572;13.460;2022-08-19T18:30:08;21.00;99.90
12870;DHT22;6503;48.572;13.460;2022-08-19T18:32:39;21.00;99.90
12870;DHT22;6503;48.572;13.460;2022-08-19T18:35:16;20.90;99.90
12870;DHT22;6503;48.572;13.460;2022-08-19T18:37:47;20.70;99.90
12870;DHT22;6503;48.572;13.460;2022-08-19T18:40:19;20.60;99.90
12870;DHT22;6503;48.572;13.460;2022-08-19T18:43:05;20.50;99.90
12870;DHT22;6503;48.572;13.460;2022-08-19T18:45:52;20.50;99.90
12870;DHT22;6503;48.572;13.460;2022-08-19T18:48:38;20.50;99.90
12870;DHT22;6503;48.572;13.460;2022-08-19T18:51:27;20.50;99.90
12870;DHT22;6503;48.572;13.460;2022-08-19T18:54:02;20.50;99.90
12870;DHT22;6503;48.572;13.460;2022-08-19T18:56:34;20.40;99.90
12870;DHT22;6503;48.572;13.460;2022-08-19T18:59:09;20.40;99.90
12870;DHT22;6503;48.572;13.460;2022-08-19T19:01:42;20.50;99.90
12870;DHT22;6503;48.572;13.460;2022-08-19T19:04:18;20.70;99.90
12870;DHT22;6503;48.572;13.460;2022-08-19T19:06:54;20.60;99.90
12870;DHT22;6503;48.572;13.460;2022-08-19T19:09:24;20.60;99.90
12870;DHT22;6503;48.572;13.460;2022-08-19T19:11:57;20.50;99.90
12870;DHT22;6503;48.572;13.460;2022-08-19T19:14:29;20.50;99.90
12870;DHT22;6503;48.572;13.460;2022-08-19T19:17:02;20.50;99.90
12870;DHT22;6503;48.572;13.460;2022-08-19T19:19:33;20.60;99.90
12870;DHT22;6503;48.572;13.460;2022-08-19T19:22:13;20.60;99.90
12870;DHT22;6503;48.572;13.460;2022-08-19T19:24:45;20.60;99.90
12870;DHT22;6503;48.572;13.460;2022-08-19T19:27:17;20.70;99.90
12870;DHT22;6503;48.572;13.460;2022-08-19T19:29:49;20.60;99.90
12870;DHT22;6503;48.572;13.460;2022-08-19T19:32:21;20.50;99.90
12870;DHT22;6503;48.572;13.460;2022-08-19T19:34:52;20.40;99.90
12870;DHT22;6503;48.572;13.460;2022-08-19T19:37:24;20.30;99.90
12870;DHT22;6503;48.572;13.460;2022-08-19T19:39:54;20.30;99.90
12870;DHT22;6503;48.572;13.460;2022-08-19T19:42:24;20.40;99.90
12870;DHT22;6503;48.572;13.460;2022-08-19T19:44:55;20.50;99.90
12870;DHT22;6503;48.572;13.460;2022-08-19T19:47:34;20.60;99.90
12870;DHT22;6503;48.572;13.460;2022-08-19T19:50:04;20.70;99.90
12870;DHT22;6503;48.572;13.460;2022-08-19T19:52:38;20.70;99.90
12870;DHT22;6503;48.572;13.460;2022-08-19T19:55:08;20.50;99.90
12870;DHT22;6503;48.572;13.460;2022-08-19T19:57:42;20.40;99.90
12870;DHT22;6503;48.572;13.460;2022-08-19T20:00:13;20.30;99.90
12870;DHT22;6503;48.572;13.460;2022-08-19T20:02:44;20.30;99.90
12870;DHT22;6503;48.572;13.460;2022-08-19T20:05:14;20.40;99.90
12870;DHT22;6503;48.572;13.460;2022-08-19T20:07:50;20.50;99.90
12870;DHT22;6503;48.572;13.460;2022-08-19T20:10:36;20.50;99.90
12870;DHT22;6503;48.572;13.460;2022-08-19T20:13:09;20.60;99.90
12870;DHT22;6503;48.572;13.460;2022-08-19T20:15:39;20.60;99.90
12870;DHT22;6503;48.572;13.460;2022-08-19T20:18:11;20.70;99.90
12870;DHT22;6503;48.572;13.460;2022-08-19T20:20:42;20.70;99.90
12870;DHT22;6503;48.572;13.460;2022-08-19T20:23:15;20.70;99.90
12870;DHT22;6503;48.572;13.460;2022-08-19T20:25:48;20.70;99.90
12870;DHT22;6503;48.572;13.460;2022-08-19T20:28:18;20.60;99.90
12870;DHT22;6503;48.572;13.460;2022-08-19T20:30:52;20.70;99.90
12870;DHT22;6503;48.572;13.460;2022-08-19T20:33:22;20.80;99.90
12870;DHT22;6503;48.572;13.460;2022-08-19T20:35:52;20.80;99.90
12870;DHT22;6503;48.572;13.460;2022-08-19T20:38:25;20.90;99.90
12870;DHT22;6503;48.572;13.460;2022-08-19T20:40:55;20.90;99.90
12870;DHT22;6503;48.572;13.460;2022-08-19T20:43:26;20.90;99.90
12870;DHT22;6503;48.572;13.460;2022-08-19T20:45:55;20.80;99.90
12870;DHT22;6503;48.572;13.460;2022-08-19T20:48:25;20.70;99.90
12870;DHT22;6503;48.572;13.460;2022-08-19T20:50:55;20.60;99.90
12870;DHT22;6503;48.572;13.460;2022-08-19T20:53:27;20.70;99.90
12870;DHT22;6503;48.572;13.460;2022-08-19T20:55:57;20.70;99.90
12870;DHT22;6503;48.572;13.460;2022-08-19T20:58:27;20.70;99.90
12870;DHT22;6503;48.572;13.460;2022-08-19T21:00:59;20.70;99.90
12870;DHT22;6503;48.572;13.460;2022-08-19T21:03:31;20.70;99.90
12870;DHT22;6503;48.572;13.460;2022-08-19T21:06:01;20.70;99.90
12870;DHT22;6503;48.572;13.460;2022-08-19T21:08:36;20.70;99.90
12870;DHT22;6503;48.572;13.460;2022-08-19T21:11:06;20.70;99.90
12870;DHT22;6503;48.572;13.460;2022-08-19T21:13:36;20.70;99.90
12870;DHT22;6503;48.572;13.460;2022-08-19T21:16:06;20.80;99.90
12870;DHT22;6503;48.572;13.460;2022-08-19T21:18:36;20.80;99.90
12870;DHT22;6503;48.572;13.460;2022-08-19T21:21:06;20.80;99.90
12870;DHT22;6503;48.572;13.460;2022-08-19T21:23:38;20.80;99.90
12870;DHT22;6503;48.572;13.460;2022-08-19T21:26:10;20.80;99.90
12870;DHT22;6503;48.572;13.460;2022-08-19T21:28:40;20.70;99.90
12870;DHT22;6503;48.572;13.460;2022-08-19T21:31:09;20.80;99.90
12870;DHT22;6503;48.572;13.460;2022-08-19T21:33:42;20.80;99.90
12870;DHT22;6503;48.572;13.460;2022-08-19T21:36:12;20.70;99.90
12870;DHT22;6503;48.572;13.460;2022-08-19T21:38:45;20.60;99.90
12870;DHT22;6503;48.572;13.460;2022-08-19T21:41:15;20.60;99.90
12870;DHT22;6503;48.572;13.460;2022-08-19T21:43:45;20.70;99.90
12870;DHT22;6503;48.572;13.460;2022-08-19T21:46:15;20.70;99.90
12870;DHT22;6503;48.572;13.460;2022-08-19T21:48:45;20.70;99.90
12870;DHT22;6503;48.572;13.460;2022-08-19T21:51:15;20.70;99.90
12870;DHT22;6503;48.572;13.460;2022-08-19T21:53:47;20.70;99.90
12870;DHT22;6503;48.572;13.460;2022-08-19T21:56:16;20.70;99.90
12870;DHT22;6503;48.572;13.460;2022-08-19T21:58:46;20.70;99.90
12870;DHT22;6503;48.572;13.460;2022-08-19T22:01:16;20.60;99.90
12870;DHT22;6503;48.572;13.460;2022-08-19T22:03:46;20.50;99.90
12870;DHT22;6503;48.572;13.460;2022-08-19T22:06:16;20.50;99.90
12870;DHT22;6503;48.572;13.460;2022-08-19T22:08:48;20.30;99.90
12870;DHT22;6503;48.572;13.460;2022-08-19T22:11:17;20.30;99.90
12870;DHT22;6503;48.572;13.460;2022-08-19T22:13:47;20.20;99.90
12870;DHT22;6503;48.572;13.460;2022-08-19T22:16:20;20.20;99.90
12870;DHT22;6503;48.572;13.460;2022-08-19T22:18:50;20.20;99.90
12870;DHT22;6503;48.572;13.460;2022-08-19T22:21:20;20.10;99.90
12870;DHT22;6503;48.572;13.460;2022-08-19T22:23:53;20.20;99.90
12870;DHT22;6503;48.572;13.460;2022-08-19T22:26:23;20.20;99.90
12870;DHT22;6503;48.572;13.460;2022-08-19T22:28:53;20.20;99.90
12870;DHT22;6503;48.572;13.460;2022-08-19T22:31:23;20.30;99.90
12870;DHT22;6503;48.572;13.460;2022-08-19T22:33:53;20.20;99.90
12870;DHT22;6503;48.572;13.460;2022-08-19T22:36:23;20.20;99.90
12870;DHT22;6503;48.572;13.460;2022-08-19T22:38:55;20.20;99.90
12870;DHT22;6503;48.572;13.460;2022-08-19T22:41:26;20.20;99.90
12870;DHT22;6503;48.572;13.460;2022-08-19T22:43:55;20.20;99.90
12870;DHT22;6503;48.572;13.460;2022-08-19T22:46:25;20.10;99.90
12870;DHT22;6503;48.572;13.460;2022-08-19T22:48:55;20.10;99.90
12870;DHT22;6503;48.572;13.460;2022-08-19T22:51:25;20.10;99.90
12870;DHT22;6503;48.572;13.460;2022-08-19T22:54:14;20.00;99.90
12870;DHT22;6503;48.572;13.460;2022-08-19T22:56:45;20.00;99.90
12870;DHT22;6503;48.572;13.460;2022-08-19T22:59:15;20.10;99.90
12870;DHT22;6503;48.572;13.460;2022-08-19T23:01:44;20.00;99.90
12870;DHT22;6503;48.572;13.460;2022-08-19T23:04:15;20.00;99.90
12870;DHT22;6503;48.572;13.460;2022-08-19T23:06:45;20.00;99.90
12870;DHT22;6503;48.572;13.460;2022-08-19T23:09:17;19.90;99.90
12870;DHT22;6503;48.572;13.460;2022-08-19T23:11:47;20.00;99.90
12870;DHT22;6503;48.572;13.460;2022-08-19T23:14:17;20.00;99.90
12870;DHT22;6503;48.572;13.460;2022-08-19T23:16:47;19.90;99.90
12870;DHT22;6503;48.572;13.460;2022-08-19T23:19:17;19.80;99.90
12870;DHT22;6503;48.572;13.460;2022-08-19T23:21:47;19.70;99.90
12870;DHT22;6503;48.572;13.460;2022-08-19T23:24:19;19.50;99.90
12870;DHT22;6503;48.572;13.460;2022-08-19T23:26:49;19.40;99.90
12870;DHT22;6503;48.572;13.460;2022-08-19T23:29:35;19.40;99.90
12870;DHT22;6503;48.572;13.460;2022-08-19T23:32:22;19.40;99.90
12870;DHT22;6503;48.572;13.460;2022-08-19T23:34:55;19.50;99.90
12870;DHT22;6503;48.572;13.460;2022-08-19T23:37:24;19.60;99.90
12870;DHT22;6503;48.572;13.460;2022-08-19T23:39:56;19.60;99.90